createdAt,value
2022-07-26T00:02:31.682Z,6.40
2022-07-26T00:05:08.978Z,6.50
2022-07-26T00:07:39.734Z,6.43
2022-07-26T00:10:08.395Z,6.63
2022-07-26T00:12:42.791Z,6.90
2022-07-26T00:15:21.115Z,6.60
2022-07-26T00:17:51.866Z,6.40
2022-07-26T00:20:20.184Z,6.63
2022-07-26T00:22:50.475Z,6.70
2022-07-26T00:25:21.278Z,6.80
2022-07-26T00:27:53.782Z,6.63
2022-07-26T00:30:23.968Z,7.00
2022-07-26T00:32:52.975Z,6.30
2022-07-26T00:35:24.121Z,6.30
2022-07-26T00:37:58.086Z,6.13
2022-07-26T00:40:45.260Z,6.67
2022-07-26T00:43:14.876Z,6.87
2022-07-26T00:45:44.916Z,6.03
2022-07-26T00:48:15.862Z,6.60
2022-07-26T00:50:49.804Z,6.63
2022-07-26T00:53:21.374Z,6.67
2022-07-26T00:55:53.936Z,6.70
2022-07-26T00:58:25.192Z,6.50
2022-07-26T01:00:54.489Z,7.00
2022-07-26T01:03:36.208Z,7.00
2022-07-26T01:06:10.433Z,7.30
2022-07-26T01:08:45.375Z,8.20
2022-07-26T01:11:15.015Z,7.83
2022-07-26T01:14:00.676Z,8.20
2022-07-26T01:16:29.047Z,7.97
2022-07-26T01:18:58.985Z,7.53
2022-07-26T01:21:34.573Z,7.80
2022-07-26T01:24:03.525Z,7.87
2022-07-26T01:26:35.716Z,7.77
2022-07-26T01:29:03.929Z,7.37
2022-07-26T01:31:34.613Z,7.37
2022-07-26T01:34:02.826Z,7.53
2022-07-26T01:36:34.624Z,7.23
2022-07-26T01:39:02.880Z,7.53
2022-07-26T01:41:41.546Z,7.17
2022-07-26T01:44:10.046Z,7.67
2022-07-26T01:46:40.141Z,7.67
2022-07-26T01:49:09.415Z,6.80
2022-07-26T01:51:41.542Z,7.27
2022-07-26T01:54:12.922Z,7.53
2022-07-26T01:56:41.471Z,6.80
2022-07-26T01:59:12.535Z,7.13
2022-07-26T02:01:40.790Z,6.87
2022-07-26T02:04:31.292Z,6.70
2022-07-26T02:07:05.632Z,7.90
2022-07-26T02:09:43.839Z,7.70
2022-07-26T02:12:12.287Z,7.10
2022-07-26T02:14:40.523Z,7.20
2022-07-26T02:17:08.685Z,8.27
2022-07-26T02:19:39.162Z,8.43
2022-07-26T02:22:10.615Z,7.90
2022-07-26T02:24:40.752Z,7.73
2022-07-26T02:30:50.582Z,7.70
2022-07-26T02:33:19.864Z,7.97
2022-07-26T02:35:50.575Z,7.57
2022-07-26T02:38:25.069Z,8.90
2022-07-26T02:41:03.048Z,8.60
2022-07-26T02:43:32.542Z,8.53
2022-07-26T02:46:02.258Z,8.03
2022-07-26T02:48:31.310Z,8.87
2022-07-26T02:50:59.880Z,7.90
2022-07-26T02:53:31.782Z,8.53
2022-07-26T02:56:04.218Z,7.93
2022-07-26T02:58:34.202Z,8.93
2022-07-26T03:01:02.504Z,8.70
2022-07-26T03:03:32.661Z,8.93
2022-07-26T03:06:05.276Z,8.47
2022-07-26T03:08:34.949Z,8.07
2022-07-26T03:11:03.299Z,8.50
2022-07-26T03:13:34.157Z,7.73
2022-07-26T03:16:05.282Z,8.37
2022-07-26T03:18:33.529Z,8.87
2022-07-26T03:21:01.860Z,7.83
2022-07-26T03:23:33.662Z,8.67
2022-07-26T03:26:06.151Z,8.67
2022-07-26T03:28:35.105Z,8.13
2022-07-26T03:31:08.434Z,8.10
2022-07-26T03:33:36.884Z,8.80
2022-07-26T03:36:11.660Z,9.03
2022-07-26T03:38:47.544Z,9.23
2022-07-26T03:41:22.100Z,8.53
2022-07-26T03:43:53.403Z,8.80
2022-07-26T03:46:21.804Z,9.37
2022-07-26T03:48:50.178Z,9.00
2022-07-26T03:51:18.473Z,8.50
2022-07-26T03:53:46.762Z,8.33
2022-07-26T03:56:33.213Z,8.70
2022-07-26T03:59:02.780Z,9.87
2022-07-26T04:01:31.744Z,9.10
2022-07-26T04:04:04.056Z,8.93
2022-07-26T04:06:35.438Z,8.30
2022-07-26T04:09:12.920Z,9.17
2022-07-26T04:11:42.877Z,8.93
2022-07-26T04:14:15.271Z,8.87
2022-07-26T04:16:47.613Z,8.40
2022-07-26T04:19:16.365Z,8.77
2022-07-26T04:21:46.933Z,8.50
2022-07-26T04:24:15.184Z,8.77
2022-07-26T04:26:52.981Z,9.67
2022-07-26T04:29:21.397Z,9.67
2022-07-26T04:31:49.827Z,9.13
2022-07-26T04:34:21.133Z,8.83
2022-07-26T04:36:49.611Z,8.83
2022-07-26T04:39:18.920Z,8.73
2022-07-26T04:41:51.544Z,8.73
2022-07-26T04:44:25.602Z,9.80
2022-07-26T04:46:54.899Z,8.80
2022-07-26T04:49:26.112Z,9.90
2022-07-26T04:51:59.341Z,9.83
2022-07-26T04:54:28.033Z,9.00
2022-07-26T04:56:57.858Z,10.00
2022-07-26T04:59:26.204Z,10.80
2022-07-26T05:01:54.821Z,10.40
2022-07-26T05:04:24.987Z,10.27
2022-07-26T05:06:53.505Z,11.07
2022-07-26T05:09:26.716Z,11.40
2022-07-26T05:11:55.107Z,10.20
2022-07-26T05:14:30.957Z,10.40
2022-07-26T05:17:09.002Z,9.73
2022-07-26T05:19:49.245Z,9.90
2022-07-26T05:22:21.143Z,9.87
2022-07-26T05:24:58.140Z,10.03
2022-07-26T05:27:33.829Z,10.03
2022-07-26T05:30:07.521Z,10.67
2022-07-26T05:32:44.452Z,10.30
2022-07-26T05:35:14.651Z,9.93
2022-07-26T05:37:49.464Z,9.47
2022-07-26T05:40:19.673Z,11.10
2022-07-26T05:42:48.029Z,9.80
2022-07-26T05:45:23.257Z,9.73
2022-07-26T05:47:53.095Z,10.23
2022-07-26T05:50:24.502Z,8.20
2022-07-26T05:52:52.869Z,8.03
2022-07-26T05:55:29.711Z,7.53
2022-07-26T05:58:01.256Z,7.70
2022-07-26T06:00:34.057Z,6.13
2022-07-26T06:03:22.175Z,5.43
2022-07-26T06:05:53.232Z,4.70
2022-07-26T06:08:27.486Z,5.30
2022-07-26T06:10:56.163Z,4.17
2022-07-26T06:13:26.848Z,4.80
2022-07-26T06:16:05.028Z,4.70
2022-07-26T06:18:42.928Z,4.27
2022-07-26T06:21:11.557Z,4.53
2022-07-26T06:23:43.760Z,3.97
2022-07-26T06:26:18.078Z,3.53
2022-07-26T06:28:47.129Z,3.73
2022-07-26T06:31:17.008Z,4.00
2022-07-26T06:33:47.143Z,4.00
2022-07-26T06:36:15.509Z,4.57
2022-07-26T06:38:43.894Z,3.60
2022-07-26T06:41:13.473Z,3.37
2022-07-26T06:43:44.526Z,3.87
2022-07-26T06:46:17.944Z,3.70
2022-07-26T06:48:47.596Z,4.10
2022-07-26T06:51:22.452Z,3.00
2022-07-26T06:53:55.993Z,3.63
2022-07-26T06:56:29.298Z,2.70
2022-07-26T06:58:57.664Z,3.20
2022-07-26T07:01:59.303Z,3.57
2022-07-26T07:04:16.248Z,3.00
2022-07-26T07:06:49.591Z,3.03
2022-07-26T07:09:21.133Z,2.50
2022-07-26T07:11:51.818Z,3.00
2022-07-26T07:14:27.536Z,3.10
2022-07-26T07:16:57.904Z,2.80
2022-07-26T07:19:29.119Z,3.30
2022-07-26T07:25:06.907Z,2.70
2022-07-26T07:27:36.874Z,2.70
2022-07-26T07:30:15.356Z,2.77
2022-07-26T07:32:58.399Z,2.53
2022-07-26T07:35:37.148Z,2.97
2022-07-26T07:38:10.086Z,2.93
2022-07-26T07:40:45.945Z,2.90
2022-07-26T07:43:25.992Z,2.67
2022-07-26T07:46:06.289Z,3.27
2022-07-26T07:48:47.548Z,3.20
2022-07-26T07:51:26.558Z,3.83
2022-07-26T07:54:06.448Z,4.20
2022-07-26T07:56:44.154Z,2.90
2022-07-26T07:59:22.841Z,3.50
2022-07-26T08:02:02.795Z,3.20
2022-07-26T08:04:33.454Z,2.87
2022-07-26T08:07:13.135Z,2.80
2022-07-26T08:09:47.939Z,2.93
2022-07-26T08:12:22.369Z,2.70
2022-07-26T08:15:08.551Z,2.50
2022-07-26T08:17:51.305Z,2.73
2022-07-26T08:20:41.050Z,2.33
2022-07-26T08:23:21.993Z,2.60
2022-07-26T08:25:57.336Z,2.60
2022-07-26T08:31:26.121Z,2.83
2022-07-26T08:34:04.149Z,2.43
2022-07-26T08:37:00.782Z,3.03
2022-07-26T08:39:44.355Z,2.63
2022-07-26T08:42:30.620Z,2.60
2022-07-26T08:45:06.991Z,2.60
2022-07-26T08:48:16.060Z,2.77
2022-07-26T08:50:55.763Z,2.10
2022-07-26T08:53:36.997Z,2.33
2022-07-26T08:56:17.327Z,2.43
2022-07-26T08:58:53.112Z,2.13
2022-07-26T09:01:34.924Z,2.30
2022-07-26T09:04:38.634Z,2.60
2022-07-26T09:07:22.400Z,2.33
2022-07-26T09:10:11.652Z,2.60
2022-07-26T09:12:59.149Z,2.60
2022-07-26T09:15:38.617Z,2.17
2022-07-26T09:18:36.416Z,2.67
2022-07-26T09:21:07.539Z,2.23
2022-07-26T09:23:51.604Z,2.20
2022-07-26T09:26:31.971Z,2.03
2022-07-26T09:29:07.463Z,2.20
2022-07-26T09:31:40.051Z,2.60
2022-07-26T09:34:20.971Z,2.83
2022-07-26T09:37:00.285Z,2.10
2022-07-26T09:39:40.505Z,2.40
2022-07-26T09:42:30.094Z,2.70
2022-07-26T09:45:01.594Z,2.07
2022-07-26T09:47:49.709Z,2.30
2022-07-26T09:50:30.902Z,1.93
2022-07-26T09:53:16.892Z,2.30
2022-07-26T09:56:01.447Z,1.93
2022-07-26T09:58:41.084Z,1.93
2022-07-26T10:01:12.687Z,2.70
2022-07-26T10:03:48.605Z,2.20
2022-07-26T10:06:30.291Z,1.93
2022-07-26T10:09:08.800Z,1.80
2022-07-26T10:11:55.301Z,1.80
2022-07-26T10:14:41.534Z,2.00
2022-07-26T10:17:41.031Z,2.23
2022-07-26T10:20:37.090Z,1.77
2022-07-26T10:23:38.291Z,2.03
2022-07-26T10:26:10.022Z,1.90
2022-07-26T10:28:42.576Z,2.10
2022-07-26T10:31:37.253Z,2.40
2022-07-26T10:34:09.326Z,2.03
2022-07-26T10:36:42.415Z,1.60
2022-07-26T10:39:19.999Z,2.10
2022-07-26T10:42:03.377Z,1.73
2022-07-26T10:44:35.444Z,1.87
2022-07-26T10:47:25.253Z,1.80
2022-07-26T10:50:01.127Z,1.87
2022-07-26T10:52:34.395Z,1.90
2022-07-26T10:55:14.054Z,1.70
2022-07-26T10:57:56.232Z,2.00
2022-07-26T11:00:29.108Z,1.87
2022-07-26T11:03:01.744Z,1.83
2022-07-26T11:05:35.338Z,2.20
2022-07-26T11:08:11.952Z,2.10
2022-07-26T11:10:44.562Z,1.90
2022-07-26T11:13:18.692Z,2.00
2022-07-26T11:15:54.505Z,1.80
2022-07-26T11:18:39.305Z,2.10
2022-07-26T11:21:23.070Z,2.20
2022-07-26T11:26:49.558Z,1.80
2022-07-26T11:29:37.283Z,1.73
2022-07-26T11:32:14.831Z,2.00
2022-07-26T11:35:02.611Z,2.03
2022-07-26T11:37:37.647Z,1.83
2022-07-26T11:40:11.603Z,1.77
2022-07-26T11:42:44.739Z,2.20
2022-07-26T11:45:18.064Z,2.40
2022-07-26T11:47:52.440Z,2.30
2022-07-26T11:50:24.749Z,2.23
2022-07-26T11:52:54.482Z,1.97
2022-07-26T11:55:28.833Z,2.07
2022-07-26T11:57:59.056Z,2.50
2022-07-26T12:00:36.958Z,2.27
2022-07-26T12:03:11.955Z,1.70
2022-07-26T12:05:47.571Z,2.03
2022-07-26T12:08:16.231Z,1.87
2022-07-26T12:10:47.889Z,2.00
2022-07-26T12:13:20.210Z,1.70
2022-07-26T12:15:53.100Z,1.70
2022-07-26T12:18:26.780Z,2.23
2022-07-26T12:21:11.823Z,1.70
2022-07-26T12:23:46.544Z,2.20
2022-07-26T12:26:29.929Z,2.20
2022-07-26T12:29:00.099Z,2.17
2022-07-26T12:31:30.899Z,1.90
2022-07-26T12:34:02.829Z,2.00
2022-07-26T12:36:36.779Z,2.00
2022-07-26T12:39:08.106Z,2.70
2022-07-26T12:41:37.810Z,1.97
2022-07-26T12:44:07.194Z,1.93
2022-07-26T12:46:45.399Z,2.20
2022-07-26T12:49:15.839Z,2.37
2022-07-26T12:51:46.033Z,1.90
2022-07-26T12:54:15.962Z,1.90
2022-07-26T12:56:56.341Z,1.80
2022-07-26T12:59:24.846Z,1.87
2022-07-26T13:01:53.344Z,2.07
2022-07-26T13:04:24.486Z,1.63
2022-07-26T13:06:54.721Z,1.50
2022-07-26T13:09:23.413Z,2.33
2022-07-26T13:11:52.097Z,1.53
2022-07-26T13:14:20.621Z,1.73
2022-07-26T13:16:50.331Z,1.90
2022-07-26T13:19:22.470Z,1.60
2022-07-26T13:21:53.091Z,1.97
2022-07-26T13:24:31.022Z,2.30
2022-07-26T13:27:06.742Z,1.90
2022-07-26T13:29:45.506Z,2.07
2022-07-26T13:32:16.918Z,1.83
2022-07-26T13:34:53.116Z,2.07
2022-07-26T13:37:24.152Z,1.90
2022-07-26T13:39:57.308Z,1.87
2022-07-26T13:42:32.678Z,2.00
2022-07-26T13:45:09.664Z,1.70
2022-07-26T13:50:42.517Z,1.50
2022-07-26T13:53:27.857Z,1.77
2022-07-26T13:56:13.459Z,1.90
2022-07-26T13:59:02.183Z,2.00
2022-07-26T14:01:51.397Z,2.07
2022-07-26T14:04:37.446Z,1.67
2022-07-26T14:10:14.446Z,1.67
2022-07-26T14:15:40.713Z,1.50
2022-07-26T14:21:19.152Z,1.60
2022-07-26T14:23:47.760Z,1.87
2022-07-26T14:26:16.033Z,1.40
2022-07-26T14:28:46.016Z,1.63
2022-07-26T14:31:14.394Z,1.27
2022-07-26T14:33:42.753Z,1.23
2022-07-26T14:36:13.432Z,1.50
2022-07-26T14:38:42.283Z,1.37
2022-07-26T14:41:10.756Z,1.13
2022-07-26T14:43:39.570Z,1.23
2022-07-26T14:46:25.847Z,1.13
2022-07-26T14:49:12.683Z,1.13
2022-07-26T14:51:51.660Z,0.93
2022-07-26T14:54:34.164Z,1.10
2022-07-26T15:05:57.709Z,1.37
2022-07-26T15:17:44.880Z,1.03
2022-07-26T15:20:28.920Z,1.20
2022-07-26T15:26:06.963Z,1.07
2022-07-26T15:34:58.679Z,0.73
2022-07-26T15:40:49.862Z,1.07
2022-07-26T15:43:44.194Z,1.50
2022-07-26T15:46:20.013Z,1.17
2022-07-26T15:48:50.355Z,1.73
2022-07-26T15:51:18.908Z,1.00
2022-07-26T15:53:48.760Z,1.47
2022-07-26T15:56:17.409Z,1.20
2022-07-26T15:58:45.942Z,1.03
2022-07-26T16:01:17.413Z,1.00
2022-07-26T16:03:48.218Z,1.23
2022-07-26T16:06:27.959Z,1.30
2022-07-26T16:09:16.513Z,1.07
2022-07-26T16:11:46.903Z,1.20
2022-07-26T16:14:15.888Z,1.10
2022-07-26T16:16:46.320Z,1.00
2022-07-26T16:19:17.043Z,1.30
2022-07-26T16:21:45.476Z,1.00
2022-07-26T16:24:15.331Z,1.17
2022-07-26T16:26:44.919Z,1.00
2022-07-26T16:29:15.891Z,1.00
2022-07-26T16:31:44.436Z,1.50
2022-07-26T16:34:13.105Z,1.10
2022-07-26T16:36:41.617Z,1.20
2022-07-26T16:39:10.238Z,0.90
2022-07-26T16:41:39.997Z,1.00
2022-07-26T16:44:08.431Z,1.33
2022-07-26T16:46:38.890Z,1.20
2022-07-26T16:49:11.650Z,1.30
2022-07-26T16:51:40.644Z,1.77
2022-07-26T16:54:09.013Z,1.20
2022-07-26T16:56:44.086Z,1.13
2022-07-26T16:59:12.903Z,1.17
2022-07-26T17:01:41.763Z,1.20
2022-07-26T17:04:10.420Z,1.20
2022-07-26T17:06:38.995Z,1.40
2022-07-26T17:09:15.101Z,1.23
2022-07-26T17:11:46.939Z,1.87
2022-07-26T17:14:16.495Z,1.50
2022-07-26T17:16:45.082Z,1.40
2022-07-26T17:19:16.672Z,1.67
2022-07-26T17:21:45.377Z,1.30
2022-07-26T17:24:13.885Z,1.43
2022-07-26T17:26:43.964Z,1.50
2022-07-26T17:29:14.049Z,1.43
2022-07-26T17:31:44.953Z,1.07
2022-07-26T17:34:13.539Z,1.50
2022-07-26T17:36:43.062Z,1.27
2022-07-26T17:39:17.899Z,1.30
2022-07-26T17:41:49.402Z,1.53
2022-07-26T17:44:22.688Z,1.13
2022-07-26T17:46:51.654Z,1.30
2022-07-26T17:49:28.316Z,1.10
2022-07-26T17:52:01.791Z,1.50
2022-07-26T17:54:33.492Z,1.03
2022-07-26T17:57:02.172Z,1.13
2022-07-26T17:59:32.076Z,1.23
2022-07-26T18:02:00.566Z,1.10
2022-07-26T18:04:29.145Z,1.03
2022-07-26T18:06:57.563Z,1.33
2022-07-26T18:09:26.023Z,1.10
2022-07-26T18:11:57.674Z,1.07
2022-07-26T18:14:26.224Z,1.30
2022-07-26T18:16:57.112Z,2.43
2022-07-26T18:19:27.532Z,0.97
2022-07-26T18:22:02.886Z,1.13
2022-07-26T18:24:37.421Z,1.10
2022-07-26T18:27:06.339Z,1.00
2022-07-26T18:29:34.914Z,1.40
2022-07-26T18:32:04.802Z,1.70
2022-07-26T18:34:35.643Z,1.27
2022-07-26T18:37:05.352Z,1.07
2022-07-26T18:39:34.000Z,1.10
2022-07-26T18:42:02.623Z,1.30
2022-07-26T18:44:31.075Z,1.37
2022-07-26T18:46:59.506Z,1.83
2022-07-26T18:49:30.791Z,1.30
2022-07-26T18:52:05.840Z,1.20
2022-07-26T18:54:37.103Z,1.40
2022-07-26T18:57:05.899Z,1.10
2022-07-26T18:59:34.340Z,1.00
2022-07-26T19:02:02.775Z,1.00
2022-07-26T19:04:32.813Z,1.23
2022-07-26T19:07:03.163Z,1.30
2022-07-26T19:09:31.672Z,1.27
2022-07-26T19:12:08.306Z,1.30
2022-07-26T19:14:36.819Z,1.40
2022-07-26T19:17:06.144Z,1.47
2022-07-26T19:19:39.002Z,1.17
2022-07-26T19:22:07.497Z,1.20
2022-07-26T19:24:36.246Z,1.37
2022-07-26T19:27:07.976Z,1.50
2022-07-26T19:29:36.505Z,1.70
2022-07-26T19:32:05.388Z,1.53
2022-07-26T19:34:37.040Z,1.60
2022-07-26T19:37:08.489Z,1.53
2022-07-26T19:39:36.983Z,1.40
2022-07-26T19:42:05.499Z,1.80
2022-07-26T19:44:34.163Z,1.50
2022-07-26T19:47:02.675Z,1.43
2022-07-26T19:49:37.079Z,1.40
2022-07-26T19:52:11.904Z,1.40
2022-07-26T19:54:43.214Z,1.47
2022-07-26T19:57:13.478Z,1.40
2022-07-26T19:59:42.018Z,1.40
2022-07-26T20:02:14.088Z,1.60
2022-07-26T20:04:46.088Z,1.50
2022-07-26T20:07:19.852Z,1.37
2022-07-26T20:09:51.362Z,1.10
2022-07-26T20:12:22.840Z,1.27
2022-07-26T20:14:54.055Z,1.73
2022-07-26T20:17:23.665Z,1.60
2022-07-26T20:19:52.233Z,1.50
2022-07-26T20:22:25.128Z,1.33
2022-07-26T20:24:56.451Z,1.73
2022-07-26T20:27:25.076Z,1.90
2022-07-26T20:29:58.815Z,1.43
2022-07-26T20:32:34.144Z,1.60
2022-07-26T20:35:02.575Z,1.80
2022-07-26T20:37:32.517Z,1.67
2022-07-26T20:40:00.970Z,1.90
2022-07-26T20:42:29.438Z,2.07
2022-07-26T20:45:01.244Z,1.70
2022-07-26T20:47:32.511Z,1.73
2022-07-26T20:50:03.403Z,1.83
2022-07-26T20:52:36.343Z,1.60
2022-07-26T20:55:05.444Z,1.80
2022-07-26T20:57:33.778Z,1.93
2022-07-26T21:00:02.053Z,2.20
2022-07-26T21:02:30.455Z,1.90
2022-07-26T21:04:58.998Z,2.30
2022-07-26T21:07:53.948Z,2.03
2022-07-26T21:10:17.923Z,2.50
2022-07-26T21:12:46.928Z,2.97
2022-07-26T21:15:15.234Z,2.20
2022-07-26T21:17:43.643Z,2.10
2022-07-26T21:20:12.351Z,2.10
2022-07-26T21:22:40.742Z,2.17
2022-07-26T21:25:09.944Z,2.10
2022-07-26T21:27:39.784Z,1.83
2022-07-26T21:30:09.594Z,2.20
2022-07-26T21:32:38.060Z,2.03
2022-07-26T21:35:07.351Z,2.00
2022-07-26T21:37:38.261Z,2.20
2022-07-26T21:40:07.991Z,2.40
2022-07-26T21:42:36.611Z,2.17
2022-07-26T21:45:07.803Z,2.27
2022-07-26T21:47:36.451Z,2.20
2022-07-26T21:50:05.172Z,2.13
2022-07-26T21:52:33.722Z,13.77
2022-07-26T21:55:02.153Z,3.30
2022-07-26T21:57:30.623Z,3.23
2022-07-26T21:59:59.023Z,2.63
2022-07-26T22:02:28.874Z,1.97
2022-07-26T22:04:57.926Z,2.40
2022-07-26T22:07:26.265Z,3.03
2022-07-26T22:09:54.652Z,3.10
2022-07-26T22:12:23.031Z,3.20
2022-07-26T22:14:51.473Z,2.30
2022-07-26T22:17:19.835Z,2.80
2022-07-26T22:19:49.642Z,2.67
2022-07-26T22:22:18.034Z,2.27
2022-07-26T22:24:46.474Z,2.37
2022-07-26T22:27:15.310Z,2.20
2022-07-26T22:29:44.114Z,2.20
2022-07-26T22:32:12.650Z,2.27
2022-07-26T22:34:41.094Z,2.20
2022-07-26T22:37:10.978Z,2.80
2022-07-26T22:39:40.302Z,2.53
2022-07-26T22:42:16.317Z,2.83
2022-07-26T22:44:45.076Z,2.93
2022-07-26T22:47:13.362Z,3.10
2022-07-26T22:49:41.642Z,2.60
2022-07-26T22:52:11.338Z,2.73
2022-07-26T22:54:40.166Z,2.77
2022-07-26T22:57:08.473Z,3.33
2022-07-26T22:59:37.388Z,3.10
2022-07-26T23:02:05.773Z,3.27
2022-07-26T23:04:34.045Z,3.20
2022-07-26T23:07:02.519Z,3.07
2022-07-26T23:09:34.256Z,7.07
2022-07-26T23:12:02.536Z,4.50
2022-07-26T23:14:30.798Z,3.30
2022-07-26T23:16:59.069Z,3.50
2022-07-26T23:19:27.595Z,3.60
2022-07-26T23:21:55.904Z,3.60
2022-07-26T23:24:24.151Z,3.27
2022-07-26T23:26:53.854Z,3.20
2022-07-26T23:29:22.101Z,3.20
2022-07-26T23:31:50.379Z,3.40
2022-07-26T23:34:18.725Z,3.50
2022-07-26T23:36:46.958Z,3.20
2022-07-26T23:39:15.279Z,3.37
2022-07-26T23:41:43.743Z,3.13
2022-07-26T23:44:13.468Z,3.37
2022-07-26T23:46:41.854Z,3.83
2022-07-26T23:49:10.578Z,3.40
2022-07-26T23:51:39.340Z,3.37
2022-07-26T23:54:07.904Z,4.10
2022-07-26T23:56:37.586Z,3.60
2022-07-26T23:59:06.135Z,3.30
